sensor_id;sensor_type;location;lat;lon;timestamp;pressure;altitude;pressure_sealevel;temperature;humidity
74310;BME280;62722;51.142;17.052;2022-08-07T08:28:36;101266.63;;;35.33;17.99
74310;BME280;62722;51.142;17.052;2022-08-07T09:51:42;101228.94;;;39.73;12.30
74310;BME280;62722;51.142;17.052;2022-08-07T09:54:39;101235.34;;;39.83;12.12
74310;BME280;62722;51.142;17.052;2022-08-07T09:57:42;101214.47;;;40.43;11.51
74310;BME280;62722;51.142;17.052;2022-08-07T10:01:29;101220.84;;;40.23;11.95
74310;BME280;62722;51.142;17.052;2022-08-07T10:04:18;101214.38;;;37.10;13.94
74310;BME280;62722;51.142;17.052;2022-08-07T10:10:13;101212.75;;;34.62;16.67
74310;BME280;62722;51.142;17.052;2022-08-07T10:16:08;101211.75;;;37.20;14.86
74310;BME280;62722;51.142;17.052;2022-08-07T10:19:12;101204.09;;;38.30;13.02
74310;BME280;62722;51.142;17.052;2022-08-07T10:21:57;101193.47;;;37.69;12.91
74310;BME280;62722;51.142;17.052;2022-08-07T10:24:55;101196.75;;;39.05;12.20
74310;BME280;62722;51.142;17.052;2022-08-07T10:27:52;101191.88;;;39.17;11.79
74310;BME280;62722;51.142;17.052;2022-08-07T10:30:29;101192.56;;;40.01;12.52
74310;BME280;62722;51.142;17.052;2022-08-07T10:33:15;101187.78;;;39.76;11.54
74310;BME280;62722;51.142;17.052;2022-08-07T10:35:58;101186.56;;;40.24;12.55
74310;BME280;62722;51.142;17.052;2022-08-07T10:38:40;101182.72;;;40.61;11.59
74310;BME280;62722;51.142;17.052;2022-08-07T10:41:14;101175.22;;;40.76;11.34
74310;BME280;62722;51.142;17.052;2022-08-07T10:43:53;101169.25;;;39.77;11.08
74310;BME280;62722;51.142;17.052;2022-08-07T10:46:24;101167.47;;;38.67;11.39
74310;BME280;62722;51.142;17.052;2022-08-07T10:49:02;101160.25;;;40.37;11.55
74310;BME280;62722;51.142;17.052;2022-08-07T10:51:39;101162.50;;;40.65;11.69
74310;BME280;62722;51.142;17.052;2022-08-07T10:54:12;101169.41;;;40.73;11.92
74310;BME280;62722;51.142;17.052;2022-08-07T10:56:48;101155.25;;;41.10;10.85
74310;BME280;62722;51.142;17.052;2022-08-07T10:59:32;101158.59;;;40.97;11.17
74310;BME280;62722;51.142;17.052;2022-08-07T11:02:06;101156.38;;;40.94;11.29
74310;BME280;62722;51.142;17.052;2022-08-07T11:05:06;101168.78;;;40.05;11.49
74310;BME280;62722;51.142;17.052;2022-08-07T11:07:41;101149.44;;;40.05;11.08
74310;BME280;62722;51.142;17.052;2022-08-07T11:10:16;101158.06;;;39.41;12.08
74310;BME280;62722;51.142;17.052;2022-08-07T11:12:50;101156.88;;;39.27;12.63
74310;BME280;62722;51.142;17.052;2022-08-07T14:28:19;100968.94;;;36.96;14.70
74310;BME280;62722;51.142;17.052;2022-08-07T14:55:03;100968.81;;;28.12;23.67
74310;BME280;62722;51.142;17.052;2022-08-07T14:57:35;100965.97;;;27.77;24.86
74310;BME280;62722;51.142;17.052;2022-08-07T15:00:03;100961.53;;;27.48;25.67
74310;BME280;62722;51.142;17.052;2022-08-07T15:02:34;100961.94;;;27.31;24.89
74310;BME280;62722;51.142;17.052;2022-08-07T15:05:02;100961.09;;;26.94;25.27
74310;BME280;62722;51.142;17.052;2022-08-07T15:07:31;100955.97;;;26.85;26.20
74310;BME280;62722;51.142;17.052;2022-08-07T15:10:00;100954.28;;;26.84;26.84
74310;BME280;62722;51.142;17.052;2022-08-07T19:25:34;101015.00;;;19.06;50.43
74310;BME280;62722;51.142;17.052;2022-08-07T19:28:04;101012.88;;;19.00;51.03
74310;BME280;62722;51.142;17.052;2022-08-07T19:30:34;101014.53;;;18.91;51.71
74310;BME280;62722;51.142;17.052;2022-08-07T19:33:06;101005.38;;;18.84;52.08
74310;BME280;62722;51.142;17.052;2022-08-07T19:35:35;101014.84;;;18.98;51.40
74310;BME280;62722;51.142;17.052;2022-08-07T19:38:09;101015.59;;;19.09;50.84
74310;BME280;62722;51.142;17.052;2022-08-07T19:40:40;101012.91;;;19.09;50.90
74310;BME280;62722;51.142;17.052;2022-08-07T19:43:13;101017.41;;;18.99;51.00
74310;BME280;62722;51.142;17.052;2022-08-07T19:45:44;101021.16;;;18.87;49.90
74310;BME280;62722;51.142;17.052;2022-08-07T19:48:18;101024.25;;;18.92;50.88
74310;BME280;62722;51.142;17.052;2022-08-07T19:50:49;101023.38;;;18.82;50.55
74310;BME280;62722;51.142;17.052;2022-08-07T19:53:17;101009.13;;;18.72;51.92
74310;BME280;62722;51.142;17.052;2022-08-07T19:55:46;101015.53;;;18.90;50.57
74310;BME280;62722;51.142;17.052;2022-08-07T19:58:14;101006.25;;;18.94;49.50
74310;BME280;62722;51.142;17.052;2022-08-07T20:00:45;101012.28;;;18.96;49.03
74310;BME280;62722;51.142;17.052;2022-08-07T20:03:15;101002.16;;;18.90;48.84
74310;BME280;62722;51.142;17.052;2022-08-07T20:05:45;100999.59;;;18.88;48.92
74310;BME280;62722;51.142;17.052;2022-08-07T20:12:20;101012.56;;;18.93;50.24
74310;BME280;62722;51.142;17.052;2022-08-07T20:14:50;101015.03;;;18.75;50.50
74310;BME280;62722;51.142;17.052;2022-08-07T20:17:19;101022.75;;;18.69;51.41
74310;BME280;62722;51.142;17.052;2022-08-07T20:19:54;101012.44;;;18.55;52.08
74310;BME280;62722;51.142;17.052;2022-08-07T20:22:55;101023.59;;;18.48;52.72
74310;BME280;62722;51.142;17.052;2022-08-07T20:38:01;101016.06;;;18.54;52.72
74310;BME280;62722;51.142;17.052;2022-08-07T20:40:36;101031.00;;;18.56;52.75
74310;BME280;62722;51.142;17.052;2022-08-07T20:43:06;101022.75;;;18.48;52.85
74310;BME280;62722;51.142;17.052;2022-08-07T20:45:37;101012.91;;;18.48;52.64
74310;BME280;62722;51.142;17.052;2022-08-07T20:48:07;101017.63;;;18.56;52.67
74310;BME280;62722;51.142;17.052;2022-08-07T20:50:36;101026.53;;;18.66;53.02
74310;BME280;62722;51.142;17.052;2022-08-07T20:53:09;101019.50;;;18.65;52.37
74310;BME280;62722;51.142;17.052;2022-08-07T20:55:41;101022.00;;;18.57;52.25
74310;BME280;62722;51.142;17.052;2022-08-07T20:58:13;101020.28;;;18.56;52.40
74310;BME280;62722;51.142;17.052;2022-08-07T21:00:50;101009.22;;;18.40;51.92
74310;BME280;62722;51.142;17.052;2022-08-07T21:03:19;101015.66;;;18.37;52.47
74310;BME280;62722;51.142;17.052;2022-08-07T21:05:49;101021.28;;;18.34;52.28
74310;BME280;62722;51.142;17.052;2022-08-07T21:08:25;101015.31;;;18.21;52.86
74310;BME280;62722;51.142;17.052;2022-08-07T21:10:56;101007.00;;;18.04;53.64
74310;BME280;62722;51.142;17.052;2022-08-07T21:13:26;101010.59;;;17.93;53.85
74310;BME280;62722;51.142;17.052;2022-08-07T21:16:01;101017.84;;;18.02;54.04
74310;BME280;62722;51.142;17.052;2022-08-07T21:18:31;101015.16;;;18.02;54.07
74310;BME280;62722;51.142;17.052;2022-08-07T21:21:02;101011.63;;;17.81;54.20
74310;BME280;62722;51.142;17.052;2022-08-07T21:23:41;101020.63;;;17.80;54.43
74310;BME280;62722;51.142;17.052;2022-08-07T21:26:18;101023.72;;;17.85;53.70
74310;BME280;62722;51.142;17.052;2022-08-07T21:28:53;101026.66;;;17.82;53.78
74310;BME280;62722;51.142;17.052;2022-08-07T21:31:28;101019.88;;;17.78;53.79
74310;BME280;62722;51.142;17.052;2022-08-07T21:34:07;101018.66;;;17.82;53.76
74310;BME280;62722;51.142;17.052;2022-08-07T21:36:42;101035.91;;;17.78;54.21
74310;BME280;62722;51.142;17.052;2022-08-07T21:39:20;101034.59;;;17.72;54.85
74310;BME280;62722;51.142;17.052;2022-08-07T21:42:01;101034.22;;;17.77;55.08
74310;BME280;62722;51.142;17.052;2022-08-07T21:44:40;101036.03;;;17.76;54.88
74310;BME280;62722;51.142;17.052;2022-08-07T21:47:13;101036.69;;;17.69;54.72
74310;BME280;62722;51.142;17.052;2022-08-07T21:49:48;101036.53;;;17.70;54.57
74310;BME280;62722;51.142;17.052;2022-08-07T21:52:22;101036.94;;;17.66;55.00
74310;BME280;62722;51.142;17.052;2022-08-07T21:55:03;101033.09;;;17.59;55.24
74310;BME280;62722;51.142;17.052;2022-08-07T21:57:52;101039.38;;;17.58;55.10
74310;BME280;62722;51.142;17.052;2022-08-07T22:00:24;101032.47;;;17.55;54.97
74310;BME280;62722;51.142;17.052;2022-08-07T22:02:57;101040.56;;;17.65;54.20
74310;BME280;62722;51.142;17.052;2022-08-07T22:05:28;101043.63;;;17.60;54.52
74310;BME280;62722;51.142;17.052;2022-08-07T22:07:59;101039.84;;;17.63;54.13
74310;BME280;62722;51.142;17.052;2022-08-07T22:10:31;101039.03;;;17.62;54.61
74310;BME280;62722;51.142;17.052;2022-08-07T22:13:02;101040.09;;;17.60;54.65
74310;BME280;62722;51.142;17.052;2022-08-07T22:15:37;101039.38;;;17.58;54.39
74310;BME280;62722;51.142;17.052;2022-08-07T22:18:08;101045.91;;;17.53;54.73
74310;BME280;62722;51.142;17.052;2022-08-07T22:20:40;101050.16;;;17.56;55.01
74310;BME280;62722;51.142;17.052;2022-08-07T22:23:16;101051.50;;;17.50;55.32
74310;BME280;62722;51.142;17.052;2022-08-07T22:25:56;101038.78;;;17.43;54.68
74310;BME280;62722;51.142;17.052;2022-08-07T22:28:29;101032.00;;;17.39;54.23
74310;BME280;62722;51.142;17.052;2022-08-07T22:31:05;101049.22;;;17.46;54.43
74310;BME280;62722;51.142;17.052;2022-08-07T22:33:42;101034.34;;;17.32;54.77
74310;BME280;62722;51.142;17.052;2022-08-07T22:36:23;101032.88;;;17.39;54.71
74310;BME280;62722;51.142;17.052;2022-08-07T22:38:57;101044.13;;;17.43;55.52
74310;BME280;62722;51.142;17.052;2022-08-07T22:41:36;101040.63;;;17.42;55.79
74310;BME280;62722;51.142;17.052;2022-08-07T22:44:09;101017.97;;;17.26;56.62
74310;BME280;62722;51.142;17.052;2022-08-07T22:50:02;101038.50;;;17.14;57.99
74310;BME280;62722;51.142;17.052;2022-08-07T22:52:50;101034.13;;;17.02;58.79
74310;BME280;62722;51.142;17.052;2022-08-07T22:55:32;101026.41;;;16.88;60.06
74310;BME280;62722;51.142;17.052;2022-08-07T22:58:48;101036.47;;;16.84;60.60
74310;BME280;62722;51.142;17.052;2022-08-07T23:01:39;101033.06;;;16.71;61.04
74310;BME280;62722;51.142;17.052;2022-08-07T23:04:26;101018.00;;;16.48;61.94
74310;BME280;62722;51.142;17.052;2022-08-07T23:07:12;101021.47;;;16.37;62.62
74310;BME280;62722;51.142;17.052;2022-08-07T23:09:52;101010.78;;;16.15;63.13
74310;BME280;62722;51.142;17.052;2022-08-07T23:12:32;101029.56;;;16.14;63.48
74310;BME280;62722;51.142;17.052;2022-08-07T23:15:24;101022.97;;;15.95;64.02
74310;BME280;62722;51.142;17.052;2022-08-07T23:18:01;101010.59;;;15.83;63.85
74310;BME280;62722;51.142;17.052;2022-08-07T23:20:48;101026.81;;;15.80;64.17
74310;BME280;62722;51.142;17.052;2022-08-07T23:23:33;101020.81;;;15.66;64.57
74310;BME280;62722;51.142;17.052;2022-08-07T23:26:17;101018.59;;;15.59;64.50
74310;BME280;62722;51.142;17.052;2022-08-07T23:29:07;101023.91;;;15.59;64.19
74310;BME280;62722;51.142;17.052;2022-08-07T23:32:02;101030.78;;;15.51;64.65
74310;BME280;62722;51.142;17.052;2022-08-07T23:35:04;101034.28;;;15.51;64.65
74310;BME280;62722;51.142;17.052;2022-08-07T23:40:36;101029.09;;;15.37;64.35
74310;BME280;62722;51.142;17.052;2022-08-07T23:43:38;101031.66;;;15.26;64.62
74310;BME280;62722;51.142;17.052;2022-08-07T23:52:17;101010.78;;;15.09;65.08
74310;BME280;62722;51.142;17.052;2022-08-07T23:54:52;101035.25;;;15.14;65.03
74310;BME280;62722;51.142;17.052;2022-08-07T23:57:29;101036.91;;;15.15;65.12
